sensor_id;sensor_type;location;lat;lon;timestamp;temperature;humidity
31677;DHT22;18385;51.572;6.578;2024-02-15T00:01:42;16.00;73.30
31677;DHT22;18385;51.572;6.578;2024-02-15T00:04:07;16.00;73.20
31677;DHT22;18385;51.572;6.578;2024-02-15T00:06:33;16.00;73.10
31677;DHT22;18385;51.572;6.578;2024-02-15T00:08:59;16.00;73.20
31677;DHT22;18385;51.572;6.578;2024-02-15T00:11:24;16.00;73.10
31677;DHT22;18385;51.572;6.578;2024-02-15T00:13:50;16.00;73.20
31677;DHT22;18385;51.572;6.578;2024-02-15T00:16:16;16.00;73.10
31677;DHT22;18385;51.572;6.578;2024-02-15T00:18:41;16.00;73.20
31677;DHT22;18385;51.572;6.578;2024-02-15T00:21:07;16.10;73.30
31677;DHT22;18385;51.572;6.578;2024-02-15T00:23:33;16.00;73.30
31677;DHT22;18385;51.572;6.578;2024-02-15T00:25:59;16.10;73.30
31677;DHT22;18385;51.572;6.578;2024-02-15T00:28:24;16.10;73.30
31677;DHT22;18385;51.572;6.578;2024-02-15T00:30:52;16.00;73.20
31677;DHT22;18385;51.572;6.578;2024-02-15T00:33:18;16.00;73.20
31677;DHT22;18385;51.572;6.578;2024-02-15T00:35:45;16.00;73.30
31677;DHT22;18385;51.572;6.578;2024-02-15T00:38:11;16.00;73.40
31677;DHT22;18385;51.572;6.578;2024-02-15T00:40:36;16.00;73.50
31677;DHT22;18385;51.572;6.578;2024-02-15T00:43:02;16.00;73.40
31677;DHT22;18385;51.572;6.578;2024-02-15T00:45:28;16.10;73.40
31677;DHT22;18385;51.572;6.578;2024-02-15T00:47:53;16.10;73.30
31677;DHT22;18385;51.572;6.578;2024-02-15T00:50:19;16.00;73.20
31677;DHT22;18385;51.572;6.578;2024-02-15T00:52:45;16.10;73.40
31677;DHT22;18385;51.572;6.578;2024-02-15T00:55:10;16.00;73.30
31677;DHT22;18385;51.572;6.578;2024-02-15T00:57:36;16.00;73.30
31677;DHT22;18385;51.572;6.578;2024-02-15T01:00:03;16.10;73.40
31677;DHT22;18385;51.572;6.578;2024-02-15T01:02:31;16.00;73.40
31677;DHT22;18385;51.572;6.578;2024-02-15T01:04:57;16.10;73.40
31677;DHT22;18385;51.572;6.578;2024-02-15T01:07:24;16.10;73.50
31677;DHT22;18385;51.572;6.578;2024-02-15T01:09:54;16.10;73.50
31677;DHT22;18385;51.572;6.578;2024-02-15T01:12:19;16.10;73.50
31677;DHT22;18385;51.572;6.578;2024-02-15T01:14:46;16.10;73.40
31677;DHT22;18385;51.572;6.578;2024-02-15T01:17:13;16.10;73.40
31677;DHT22;18385;51.572;6.578;2024-02-15T01:19:39;16.10;73.40
31677;DHT22;18385;51.572;6.578;2024-02-15T01:22:04;16.10;73.50
31677;DHT22;18385;51.572;6.578;2024-02-15T01:24:32;16.10;73.50
31677;DHT22;18385;51.572;6.578;2024-02-15T01:26:58;16.10;73.50
31677;DHT22;18385;51.572;6.578;2024-02-15T01:29:24;16.20;73.50
31677;DHT22;18385;51.572;6.578;2024-02-15T01:31:52;16.10;73.40
31677;DHT22;18385;51.572;6.578;2024-02-15T01:34:18;16.20;73.40
31677;DHT22;18385;51.572;6.578;2024-02-15T01:36:43;16.10;73.50
31677;DHT22;18385;51.572;6.578;2024-02-15T01:39:09;16.10;73.50
31677;DHT22;18385;51.572;6.578;2024-02-15T01:41:35;16.10;73.50
31677;DHT22;18385;51.572;6.578;2024-02-15T01:44:01;16.10;73.60
31677;DHT22;18385;51.572;6.578;2024-02-15T01:46:27;16.10;73.60
31677;DHT22;18385;51.572;6.578;2024-02-15T01:48:55;16.20;73.70
31677;DHT22;18385;51.572;6.578;2024-02-15T01:51:23;16.10;73.60
31677;DHT22;18385;51.572;6.578;2024-02-15T01:53:49;16.20;73.60
31677;DHT22;18385;51.572;6.578;2024-02-15T01:56:16;16.20;73.60
31677;DHT22;18385;51.572;6.578;2024-02-15T01:58:43;16.20;73.50
31677;DHT22;18385;51.572;6.578;2024-02-15T02:01:11;16.20;73.50
31677;DHT22;18385;51.572;6.578;2024-02-15T02:03:37;16.20;73.50
31677;DHT22;18385;51.572;6.578;2024-02-15T02:06:04;16.20;73.50
31677;DHT22;18385;51.572;6.578;2024-02-15T02:08:30;16.20;73.50
31677;DHT22;18385;51.572;6.578;2024-02-15T02:10:56;16.20;73.50
31677;DHT22;18385;51.572;6.578;2024-02-15T02:13:23;16.20;73.50
31677;DHT22;18385;51.572;6.578;2024-02-15T02:15:48;16.20;73.40
31677;DHT22;18385;51.572;6.578;2024-02-15T02:18:15;16.20;73.40
31677;DHT22;18385;51.572;6.578;2024-02-15T02:20:40;16.20;73.50
31677;DHT22;18385;51.572;6.578;2024-02-15T02:23:15;16.20;73.50
31677;DHT22;18385;51.572;6.578;2024-02-15T02:25:42;16.20;73.50
31677;DHT22;18385;51.572;6.578;2024-02-15T02:28:08;16.10;73.50
31677;DHT22;18385;51.572;6.578;2024-02-15T02:30:34;16.10;73.50
31677;DHT22;18385;51.572;6.578;2024-02-15T02:33:00;16.20;73.50
31677;DHT22;18385;51.572;6.578;2024-02-15T02:35:27;16.20;73.50
31677;DHT22;18385;51.572;6.578;2024-02-15T02:37:53;16.10;73.50
31677;DHT22;18385;51.572;6.578;2024-02-15T02:40:19;16.10;73.50
31677;DHT22;18385;51.572;6.578;2024-02-15T02:42:52;16.10;73.50
31677;DHT22;18385;51.572;6.578;2024-02-15T02:45:19;16.10;73.50
31677;DHT22;18385;51.572;6.578;2024-02-15T02:47:54;16.10;73.50
31677;DHT22;18385;51.572;6.578;2024-02-15T02:50:23;16.10;73.60
31677;DHT22;18385;51.572;6.578;2024-02-15T02:52:49;16.10;73.50
31677;DHT22;18385;51.572;6.578;2024-02-15T02:55:15;16.00;73.50
31677;DHT22;18385;51.572;6.578;2024-02-15T02:57:41;16.10;73.50
31677;DHT22;18385;51.572;6.578;2024-02-15T03:00:12;16.00;73.40
31677;DHT22;18385;51.572;6.578;2024-02-15T03:02:39;16.00;73.50
31677;DHT22;18385;51.572;6.578;2024-02-15T03:05:06;16.00;73.60
31677;DHT22;18385;51.572;6.578;2024-02-15T03:07:34;16.00;73.60
31677;DHT22;18385;51.572;6.578;2024-02-15T03:10:00;16.10;73.80
31677;DHT22;18385;51.572;6.578;2024-02-15T03:12:26;16.10;73.70
31677;DHT22;18385;51.572;6.578;2024-02-15T03:14:52;16.10;73.70
31677;DHT22;18385;51.572;6.578;2024-02-15T03:17:18;16.10;73.50
31677;DHT22;18385;51.572;6.578;2024-02-15T03:19:43;16.10;73.60
31677;DHT22;18385;51.572;6.578;2024-02-15T03:22:09;16.20;73.60
31677;DHT22;18385;51.572;6.578;2024-02-15T03:24:36;16.20;73.50
31677;DHT22;18385;51.572;6.578;2024-02-15T03:27:02;16.20;73.40
31677;DHT22;18385;51.572;6.578;2024-02-15T03:29:28;16.20;73.50
31677;DHT22;18385;51.572;6.578;2024-02-15T03:31:54;16.20;73.50
31677;DHT22;18385;51.572;6.578;2024-02-15T03:34:21;16.30;73.40
31677;DHT22;18385;51.572;6.578;2024-02-15T03:36:47;16.20;73.30
31677;DHT22;18385;51.572;6.578;2024-02-15T03:39:19;16.30;73.40
31677;DHT22;18385;51.572;6.578;2024-02-15T03:41:45;16.20;73.30
31677;DHT22;18385;51.572;6.578;2024-02-15T03:44:14;16.30;73.40
31677;DHT22;18385;51.572;6.578;2024-02-15T03:46:40;16.30;73.30
31677;DHT22;18385;51.572;6.578;2024-02-15T03:49:06;16.30;73.30
31677;DHT22;18385;51.572;6.578;2024-02-15T03:51:34;16.20;74.10
31677;DHT22;18385;51.572;6.578;2024-02-15T03:54:00;16.30;73.50
31677;DHT22;18385;51.572;6.578;2024-02-15T03:56:26;16.30;73.70
31677;DHT22;18385;51.572;6.578;2024-02-15T03:58:51;16.30;73.30
31677;DHT22;18385;51.572;6.578;2024-02-15T04:01:17;16.30;73.30
31677;DHT22;18385;51.572;6.578;2024-02-15T04:03:43;16.20;73.20
31677;DHT22;18385;51.572;6.578;2024-02-15T04:06:08;16.20;73.20
31677;DHT22;18385;51.572;6.578;2024-02-15T04:08:36;16.20;73.30
31677;DHT22;18385;51.572;6.578;2024-02-15T04:11:05;16.20;73.30
31677;DHT22;18385;51.572;6.578;2024-02-15T04:13:33;16.10;73.30
31677;DHT22;18385;51.572;6.578;2024-02-15T04:15:59;16.20;73.40
31677;DHT22;18385;51.572;6.578;2024-02-15T04:18:24;16.20;74.20
31677;DHT22;18385;51.572;6.578;2024-02-15T04:20:50;16.20;73.40
31677;DHT22;18385;51.572;6.578;2024-02-15T04:23:17;16.20;74.20
31677;DHT22;18385;51.572;6.578;2024-02-15T04:25:42;16.20;73.40
31677;DHT22;18385;51.572;6.578;2024-02-15T04:28:12;16.20;73.30
31677;DHT22;18385;51.572;6.578;2024-02-15T04:30:37;16.20;73.30
31677;DHT22;18385;51.572;6.578;2024-02-15T04:33:04;16.20;73.50
31677;DHT22;18385;51.572;6.578;2024-02-15T04:35:31;16.20;73.30
31677;DHT22;18385;51.572;6.578;2024-02-15T04:37:56;16.20;73.30
31677;DHT22;18385;51.572;6.578;2024-02-15T04:40:23;16.20;73.20
31677;DHT22;18385;51.572;6.578;2024-02-15T04:42:50;16.20;73.30
31677;DHT22;18385;51.572;6.578;2024-02-15T04:45:15;16.30;73.30
31677;DHT22;18385;51.572;6.578;2024-02-15T04:47:42;16.30;73.20
31677;DHT22;18385;51.572;6.578;2024-02-15T04:50:08;16.30;73.10
31677;DHT22;18385;51.572;6.578;2024-02-15T04:52:34;16.30;73.10
31677;DHT22;18385;51.572;6.578;2024-02-15T04:55:00;16.30;73.10
31677;DHT22;18385;51.572;6.578;2024-02-15T04:57:26;16.30;73.10
31677;DHT22;18385;51.572;6.578;2024-02-15T04:59:55;16.30;73.00
31677;DHT22;18385;51.572;6.578;2024-02-15T05:02:21;16.30;73.00
31677;DHT22;18385;51.572;6.578;2024-02-15T05:04:50;16.30;73.00
31677;DHT22;18385;51.572;6.578;2024-02-15T05:07:21;16.30;72.90
31677;DHT22;18385;51.572;6.578;2024-02-15T05:09:50;16.30;73.00
31677;DHT22;18385;51.572;6.578;2024-02-15T05:12:23;16.30;73.00
31677;DHT22;18385;51.572;6.578;2024-02-15T05:14:53;16.20;72.90
31677;DHT22;18385;51.572;6.578;2024-02-15T05:17:19;16.20;72.90
31677;DHT22;18385;51.572;6.578;2024-02-15T05:19:44;16.20;73.00
31677;DHT22;18385;51.572;6.578;2024-02-15T05:22:10;16.20;73.00
31677;DHT22;18385;51.572;6.578;2024-02-15T05:24:37;16.20;73.10
31677;DHT22;18385;51.572;6.578;2024-02-15T05:27:04;16.20;73.10
31677;DHT22;18385;51.572;6.578;2024-02-15T05:29:30;16.20;73.00
31677;DHT22;18385;51.572;6.578;2024-02-15T05:31:59;16.20;73.00
31677;DHT22;18385;51.572;6.578;2024-02-15T05:34:25;16.20;72.90
31677;DHT22;18385;51.572;6.578;2024-02-15T05:36:51;16.30;73.00
31677;DHT22;18385;51.572;6.578;2024-02-15T05:39:17;16.30;73.00
31677;DHT22;18385;51.572;6.578;2024-02-15T05:41:47;16.30;72.90
31677;DHT22;18385;51.572;6.578;2024-02-15T05:44:12;16.30;72.80
31677;DHT22;18385;51.572;6.578;2024-02-15T05:46:44;16.30;73.00
31677;DHT22;18385;51.572;6.578;2024-02-15T05:49:09;16.20;72.80
31677;DHT22;18385;51.572;6.578;2024-02-15T05:51:41;16.30;73.00
31677;DHT22;18385;51.572;6.578;2024-02-15T05:54:06;16.30;72.90
31677;DHT22;18385;51.572;6.578;2024-02-15T05:56:32;16.30;73.60
31677;DHT22;18385;51.572;6.578;2024-02-15T05:58:57;16.30;72.80
31677;DHT22;18385;51.572;6.578;2024-02-15T06:01:26;16.20;72.70
31677;DHT22;18385;51.572;6.578;2024-02-15T06:03:51;16.30;72.80
31677;DHT22;18385;51.572;6.578;2024-02-15T06:06:22;16.40;72.90
31677;DHT22;18385;51.572;6.578;2024-02-15T06:08:49;16.30;72.70
31677;DHT22;18385;51.572;6.578;2024-02-15T06:11:19;16.30;72.80
31677;DHT22;18385;51.572;6.578;2024-02-15T06:13:50;16.30;72.70
31677;DHT22;18385;51.572;6.578;2024-02-15T06:16:16;16.30;72.70
31677;DHT22;18385;51.572;6.578;2024-02-15T06:18:41;16.30;72.70
31677;DHT22;18385;51.572;6.578;2024-02-15T06:21:07;16.30;72.70
31677;DHT22;18385;51.572;6.578;2024-02-15T06:23:36;16.30;72.70
31677;DHT22;18385;51.572;6.578;2024-02-15T06:26:02;16.30;72.70
31677;DHT22;18385;51.572;6.578;2024-02-15T06:28:30;16.30;72.80
31677;DHT22;18385;51.572;6.578;2024-02-15T06:31:21;16.30;72.70
31677;DHT22;18385;51.572;6.578;2024-02-15T06:34:06;16.30;72.70
31677;DHT22;18385;51.572;6.578;2024-02-15T06:36:52;16.20;72.70
31677;DHT22;18385;51.572;6.578;2024-02-15T06:39:36;16.20;72.60
31677;DHT22;18385;51.572;6.578;2024-02-15T06:42:14;16.20;72.70
31677;DHT22;18385;51.572;6.578;2024-02-15T06:44:43;16.20;72.70
31677;DHT22;18385;51.572;6.578;2024-02-15T06:47:09;16.20;72.70
31677;DHT22;18385;51.572;6.578;2024-02-15T06:49:37;16.30;72.70
31677;DHT22;18385;51.572;6.578;2024-02-15T06:52:06;16.30;72.60
31677;DHT22;18385;51.572;6.578;2024-02-15T06:54:33;16.30;72.60
31677;DHT22;18385;51.572;6.578;2024-02-15T06:57:03;16.30;72.60
31677;DHT22;18385;51.572;6.578;2024-02-15T06:59:30;16.20;73.30
31677;DHT22;18385;51.572;6.578;2024-02-15T07:01:57;16.20;72.60
31677;DHT22;18385;51.572;6.578;2024-02-15T07:04:23;16.20;72.50
31677;DHT22;18385;51.572;6.578;2024-02-15T07:06:51;16.20;72.50
31677;DHT22;18385;51.572;6.578;2024-02-15T07:09:20;16.10;72.50
31677;DHT22;18385;51.572;6.578;2024-02-15T07:11:45;16.10;72.50
31677;DHT22;18385;51.572;6.578;2024-02-15T07:14:14;16.10;72.60
31677;DHT22;18385;51.572;6.578;2024-02-15T07:16:45;16.00;72.60
31677;DHT22;18385;51.572;6.578;2024-02-15T07:19:11;16.00;72.60
31677;DHT22;18385;51.572;6.578;2024-02-15T07:21:37;16.00;72.80
31677;DHT22;18385;51.572;6.578;2024-02-15T07:24:04;16.00;72.80
31677;DHT22;18385;51.572;6.578;2024-02-15T07:26:30;16.00;72.90
31677;DHT22;18385;51.572;6.578;2024-02-15T07:28:56;16.10;72.80
31677;DHT22;18385;51.572;6.578;2024-02-15T07:31:27;16.10;72.70
31677;DHT22;18385;51.572;6.578;2024-02-15T07:33:53;16.10;72.80
31677;DHT22;18385;51.572;6.578;2024-02-15T07:36:22;16.10;72.80
31677;DHT22;18385;51.572;6.578;2024-02-15T07:38:48;16.10;72.90
31677;DHT22;18385;51.572;6.578;2024-02-15T07:41:16;16.10;72.90
31677;DHT22;18385;51.572;6.578;2024-02-15T07:43:43;16.10;72.80
31677;DHT22;18385;51.572;6.578;2024-02-15T07:46:14;16.20;72.90
31677;DHT22;18385;51.572;6.578;2024-02-15T07:48:44;16.20;72.80
31677;DHT22;18385;51.572;6.578;2024-02-15T07:51:15;16.20;72.80
31677;DHT22;18385;51.572;6.578;2024-02-15T07:53:41;16.20;72.80
31677;DHT22;18385;51.572;6.578;2024-02-15T07:56:10;16.20;72.80
31677;DHT22;18385;51.572;6.578;2024-02-15T07:58:41;16.20;72.60
31677;DHT22;18385;51.572;6.578;2024-02-15T08:01:07;16.30;72.70
31677;DHT22;18385;51.572;6.578;2024-02-15T08:03:35;16.30;72.70
31677;DHT22;18385;51.572;6.578;2024-02-15T08:06:02;16.30;72.70
31677;DHT22;18385;51.572;6.578;2024-02-15T08:08:32;16.30;72.60
31677;DHT22;18385;51.572;6.578;2024-02-15T08:11:01;16.30;72.60
31677;DHT22;18385;51.572;6.578;2024-02-15T08:13:27;16.30;72.60
31677;DHT22;18385;51.572;6.578;2024-02-15T08:15:55;16.30;72.60
31677;DHT22;18385;51.572;6.578;2024-02-15T08:18:21;16.30;72.50
31677;DHT22;18385;51.572;6.578;2024-02-15T08:20:47;16.30;72.50
31677;DHT22;18385;51.572;6.578;2024-02-15T08:23:12;16.20;72.50
31677;DHT22;18385;51.572;6.578;2024-02-15T08:25:38;16.20;72.60
31677;DHT22;18385;51.572;6.578;2024-02-15T08:28:06;16.30;72.70
31677;DHT22;18385;51.572;6.578;2024-02-15T08:30:33;16.30;72.60
31677;DHT22;18385;51.572;6.578;2024-02-15T08:32:58;16.30;72.50
31677;DHT22;18385;51.572;6.578;2024-02-15T08:35:24;16.30;72.40
31677;DHT22;18385;51.572;6.578;2024-02-15T08:37:50;16.30;72.40
31677;DHT22;18385;51.572;6.578;2024-02-15T08:40:17;16.30;72.50
31677;DHT22;18385;51.572;6.578;2024-02-15T08:42:45;16.30;72.40
31677;DHT22;18385;51.572;6.578;2024-02-15T08:45:11;16.30;72.50
31677;DHT22;18385;51.572;6.578;2024-02-15T08:47:41;16.30;72.50
31677;DHT22;18385;51.572;6.578;2024-02-15T08:50:07;16.30;72.60
31677;DHT22;18385;51.572;6.578;2024-02-15T08:52:37;16.30;72.70
31677;DHT22;18385;51.572;6.578;2024-02-15T08:55:06;16.40;72.80
31677;DHT22;18385;51.572;6.578;2024-02-15T08:57:33;16.40;72.70
31677;DHT22;18385;51.572;6.578;2024-02-15T08:59:59;16.40;72.70
31677;DHT22;18385;51.572;6.578;2024-02-15T09:02:24;16.50;72.60
31677;DHT22;18385;51.572;6.578;2024-02-15T09:04:50;16.60;72.60
31677;DHT22;18385;51.572;6.578;2024-02-15T09:07:16;16.70;72.50
31677;DHT22;18385;51.572;6.578;2024-02-15T09:09:41;16.70;72.40
31677;DHT22;18385;51.572;6.578;2024-02-15T09:12:07;16.70;72.40
31677;DHT22;18385;51.572;6.578;2024-02-15T09:14:33;16.80;72.30
31677;DHT22;18385;51.572;6.578;2024-02-15T09:17:00;16.80;72.10
31677;DHT22;18385;51.572;6.578;2024-02-15T09:19:25;16.80;72.20
31677;DHT22;18385;51.572;6.578;2024-02-15T09:21:51;16.90;72.30
31677;DHT22;18385;51.572;6.578;2024-02-15T09:24:17;16.90;72.20
31677;DHT22;18385;51.572;6.578;2024-02-15T09:26:42;16.90;72.10
31677;DHT22;18385;51.572;6.578;2024-02-15T09:29:10;16.80;72.00
31677;DHT22;18385;51.572;6.578;2024-02-15T09:31:35;16.80;72.20
31677;DHT22;18385;51.572;6.578;2024-02-15T09:34:02;16.90;72.20
31677;DHT22;18385;51.572;6.578;2024-02-15T09:36:35;16.90;72.20
31677;DHT22;18385;51.572;6.578;2024-02-15T09:39:03;17.00;72.20
31677;DHT22;18385;51.572;6.578;2024-02-15T09:41:29;17.00;72.20
31677;DHT22;18385;51.572;6.578;2024-02-15T09:43:55;17.10;72.10
31677;DHT22;18385;51.572;6.578;2024-02-15T09:46:21;17.10;72.00
31677;DHT22;18385;51.572;6.578;2024-02-15T09:48:50;17.20;72.10
31677;DHT22;18385;51.572;6.578;2024-02-15T09:51:18;17.20;71.80
31677;DHT22;18385;51.572;6.578;2024-02-15T09:53:45;17.20;71.70
31677;DHT22;18385;51.572;6.578;2024-02-15T09:56:15;17.20;71.60
31677;DHT22;18385;51.572;6.578;2024-02-15T09:58:41;17.10;71.60
31677;DHT22;18385;51.572;6.578;2024-02-15T10:01:10;17.10;71.70
31677;DHT22;18385;51.572;6.578;2024-02-15T10:03:39;17.10;71.80
31677;DHT22;18385;51.572;6.578;2024-02-15T10:06:08;17.10;71.70
31677;DHT22;18385;51.572;6.578;2024-02-15T10:08:33;17.10;71.70
31677;DHT22;18385;51.572;6.578;2024-02-15T10:11:06;17.10;71.70
31677;DHT22;18385;51.572;6.578;2024-02-15T10:13:33;17.20;71.70
31677;DHT22;18385;51.572;6.578;2024-02-15T10:15:59;17.20;71.70
31677;DHT22;18385;51.572;6.578;2024-02-15T10:18:38;17.30;71.70
31677;DHT22;18385;51.572;6.578;2024-02-15T10:21:04;17.40;71.70
31677;DHT22;18385;51.572;6.578;2024-02-15T10:23:30;17.50;71.60
31677;DHT22;18385;51.572;6.578;2024-02-15T10:25:55;17.70;71.60
31677;DHT22;18385;51.572;6.578;2024-02-15T10:28:24;17.80;71.30
31677;DHT22;18385;51.572;6.578;2024-02-15T10:30:50;18.00;71.20
31677;DHT22;18385;51.572;6.578;2024-02-15T10:33:19;18.00;70.80
31677;DHT22;18385;51.572;6.578;2024-02-15T10:35:46;18.10;70.70
31677;DHT22;18385;51.572;6.578;2024-02-15T10:38:12;18.10;70.60
31677;DHT22;18385;51.572;6.578;2024-02-15T10:40:41;18.00;70.60
31677;DHT22;18385;51.572;6.578;2024-02-15T10:43:11;18.00;70.50
31677;DHT22;18385;51.572;6.578;2024-02-15T10:45:40;18.10;70.70
31677;DHT22;18385;51.572;6.578;2024-02-15T10:48:10;18.10;70.50
31677;DHT22;18385;51.572;6.578;2024-02-15T10:50:36;18.10;70.30
31677;DHT22;18385;51.572;6.578;2024-02-15T10:53:15;18.10;70.40
31677;DHT22;18385;51.572;6.578;2024-02-15T10:58:47;18.30;70.30
31677;DHT22;18385;51.572;6.578;2024-02-15T11:01:17;18.30;70.20
31677;DHT22;18385;51.572;6.578;2024-02-15T11:03:59;18.40;70.20
31677;DHT22;18385;51.572;6.578;2024-02-15T11:06:28;18.50;70.10
31677;DHT22;18385;51.572;6.578;2024-02-15T11:08:55;18.50;70.00
31677;DHT22;18385;51.572;6.578;2024-02-15T11:11:22;18.60;70.00
31677;DHT22;18385;51.572;6.578;2024-02-15T11:13:48;18.80;70.00
31677;DHT22;18385;51.572;6.578;2024-02-15T11:16:42;19.00;69.70
31677;DHT22;18385;51.572;6.578;2024-02-15T11:22:10;19.00;69.00
31677;DHT22;18385;51.572;6.578;2024-02-15T11:25:19;19.00;69.10
31677;DHT22;18385;51.572;6.578;2024-02-15T11:31:06;19.20;68.80
31677;DHT22;18385;51.572;6.578;2024-02-15T11:33:34;19.10;68.90
31677;DHT22;18385;51.572;6.578;2024-02-15T11:36:11;19.20;68.90
31677;DHT22;18385;51.572;6.578;2024-02-15T11:38:37;19.20;68.80
31677;DHT22;18385;51.572;6.578;2024-02-15T11:41:07;19.30;68.70
31677;DHT22;18385;51.572;6.578;2024-02-15T11:43:50;19.30;68.50
31677;DHT22;18385;51.572;6.578;2024-02-15T11:46:23;19.40;68.40
31677;DHT22;18385;51.572;6.578;2024-02-15T11:48:52;19.40;68.40
31677;DHT22;18385;51.572;6.578;2024-02-15T11:51:31;19.40;68.10
31677;DHT22;18385;51.572;6.578;2024-02-15T11:54:11;19.50;68.20
31677;DHT22;18385;51.572;6.578;2024-02-15T11:59:09;19.80;68.20
31677;DHT22;18385;51.572;6.578;2024-02-15T12:01:38;20.00;68.00
31677;DHT22;18385;51.572;6.578;2024-02-15T12:04:22;20.20;67.60
31677;DHT22;18385;51.572;6.578;2024-02-15T12:07:07;20.20;67.30
31677;DHT22;18385;51.572;6.578;2024-02-15T12:09:58;20.20;67.20
31677;DHT22;18385;51.572;6.578;2024-02-15T12:12:53;20.30;67.00
31677;DHT22;18385;51.572;6.578;2024-02-15T12:15:38;20.30;67.70
31677;DHT22;18385;51.572;6.578;2024-02-15T12:18:22;20.40;67.00
31677;DHT22;18385;51.572;6.578;2024-02-15T12:21:07;20.50;66.90
31677;DHT22;18385;51.572;6.578;2024-02-15T12:23:38;20.50;66.60
31677;DHT22;18385;51.572;6.578;2024-02-15T12:26:04;20.50;66.40
31677;DHT22;18385;51.572;6.578;2024-02-15T12:28:30;20.60;66.60
31677;DHT22;18385;51.572;6.578;2024-02-15T12:31:02;20.80;66.30
31677;DHT22;18385;51.572;6.578;2024-02-15T12:34:20;20.80;66.10
31677;DHT22;18385;51.572;6.578;2024-02-15T12:36:46;20.90;66.00
31677;DHT22;18385;51.572;6.578;2024-02-15T12:39:26;21.00;65.90
31677;DHT22;18385;51.572;6.578;2024-02-15T12:41:55;21.00;65.50
31677;DHT22;18385;51.572;6.578;2024-02-15T12:44:23;21.10;65.50
31677;DHT22;18385;51.572;6.578;2024-02-15T12:46:55;21.10;65.30
31677;DHT22;18385;51.572;6.578;2024-02-15T12:49:32;21.20;65.10
31677;DHT22;18385;51.572;6.578;2024-02-15T12:55:09;21.30;65.10
31677;DHT22;18385;51.572;6.578;2024-02-15T12:57:38;21.40;65.20
31677;DHT22;18385;51.572;6.578;2024-02-15T13:00:10;21.50;64.90
31677;DHT22;18385;51.572;6.578;2024-02-15T13:02:39;21.60;64.60
31677;DHT22;18385;51.572;6.578;2024-02-15T13:05:05;21.70;64.60
31677;DHT22;18385;51.572;6.578;2024-02-15T13:07:34;21.80;64.40
31677;DHT22;18385;51.572;6.578;2024-02-15T13:10:01;21.90;64.10
31677;DHT22;18385;51.572;6.578;2024-02-15T13:12:26;21.90;63.90
31677;DHT22;18385;51.572;6.578;2024-02-15T13:14:54;22.00;63.80
31677;DHT22;18385;51.572;6.578;2024-02-15T13:17:20;22.00;63.60
31677;DHT22;18385;51.572;6.578;2024-02-15T13:19:47;22.10;63.50
31677;DHT22;18385;51.572;6.578;2024-02-15T13:22:15;22.10;63.30
31677;DHT22;18385;51.572;6.578;2024-02-15T13:24:42;22.10;62.90
31677;DHT22;18385;51.572;6.578;2024-02-15T13:27:07;22.10;63.10
31677;DHT22;18385;51.572;6.578;2024-02-15T13:29:35;22.10;62.90
31677;DHT22;18385;51.572;6.578;2024-02-15T13:32:01;22.10;62.70
31677;DHT22;18385;51.572;6.578;2024-02-15T13:34:27;22.00;62.60
31677;DHT22;18385;51.572;6.578;2024-02-15T13:36:52;22.00;62.50
31677;DHT22;18385;51.572;6.578;2024-02-15T13:39:20;21.90;62.40
31677;DHT22;18385;51.572;6.578;2024-02-15T13:41:47;21.80;62.20
31677;DHT22;18385;51.572;6.578;2024-02-15T13:44:13;21.70;62.30
31677;DHT22;18385;51.572;6.578;2024-02-15T13:46:40;21.70;62.40
31677;DHT22;18385;51.572;6.578;2024-02-15T13:49:08;21.70;62.50
31677;DHT22;18385;51.572;6.578;2024-02-15T13:51:33;21.70;62.30
31677;DHT22;18385;51.572;6.578;2024-02-15T13:54:00;21.70;62.10
31677;DHT22;18385;51.572;6.578;2024-02-15T13:56:25;21.60;61.90
31677;DHT22;18385;51.572;6.578;2024-02-15T13:58:51;21.70;62.20
31677;DHT22;18385;51.572;6.578;2024-02-15T14:01:17;21.60;61.90
31677;DHT22;18385;51.572;6.578;2024-02-15T14:03:43;21.70;61.90
31677;DHT22;18385;51.572;6.578;2024-02-15T14:06:11;21.60;61.60
31677;DHT22;18385;51.572;6.578;2024-02-15T14:08:37;21.60;61.60
31677;DHT22;18385;51.572;6.578;2024-02-15T14:11:02;21.60;61.60
31677;DHT22;18385;51.572;6.578;2024-02-15T14:13:28;21.50;61.60
31677;DHT22;18385;51.572;6.578;2024-02-15T14:15:55;21.50;61.60
31677;DHT22;18385;51.572;6.578;2024-02-15T14:18:24;21.50;61.50
31677;DHT22;18385;51.572;6.578;2024-02-15T14:20:49;21.50;61.60
31677;DHT22;18385;51.572;6.578;2024-02-15T14:23:16;21.50;61.30
31677;DHT22;18385;51.572;6.578;2024-02-15T14:25:43;21.60;61.90
31677;DHT22;18385;51.572;6.578;2024-02-15T14:28:10;22.10;62.60
31677;DHT22;18385;51.572;6.578;2024-02-15T14:30:36;22.60;62.60
31677;DHT22;18385;51.572;6.578;2024-02-15T14:33:21;23.30;62.30
31677;DHT22;18385;51.572;6.578;2024-02-15T14:35:48;23.60;60.60
31677;DHT22;18385;51.572;6.578;2024-02-15T14:38:14;23.70;60.40
31677;DHT22;18385;51.572;6.578;2024-02-15T14:40:41;24.10;60.40
31677;DHT22;18385;51.572;6.578;2024-02-15T14:43:12;24.40;59.90
31677;DHT22;18385;51.572;6.578;2024-02-15T14:45:41;24.60;59.10
31677;DHT22;18385;51.572;6.578;2024-02-15T14:48:07;24.70;58.60
31677;DHT22;18385;51.572;6.578;2024-02-15T14:50:41;24.80;58.80
31677;DHT22;18385;51.572;6.578;2024-02-15T14:53:07;24.80;58.10
31677;DHT22;18385;51.572;6.578;2024-02-15T14:55:36;24.60;57.20
31677;DHT22;18385;51.572;6.578;2024-02-15T14:58:09;24.20;56.90
31677;DHT22;18385;51.572;6.578;2024-02-15T15:00:35;23.60;56.70
31677;DHT22;18385;51.572;6.578;2024-02-15T15:03:00;23.10;56.90
31677;DHT22;18385;51.572;6.578;2024-02-15T15:05:28;22.70;57.20
31677;DHT22;18385;51.572;6.578;2024-02-15T15:08:12;22.30;57.60
31677;DHT22;18385;51.572;6.578;2024-02-15T15:10:56;22.10;57.90
31677;DHT22;18385;51.572;6.578;2024-02-15T15:13:41;21.80;57.90
31677;DHT22;18385;51.572;6.578;2024-02-15T15:16:06;21.60;58.10
31677;DHT22;18385;51.572;6.578;2024-02-15T15:18:33;21.40;58.20
31677;DHT22;18385;51.572;6.578;2024-02-15T15:20:59;21.30;58.30
31677;DHT22;18385;51.572;6.578;2024-02-15T15:23:28;21.10;58.30
31677;DHT22;18385;51.572;6.578;2024-02-15T15:26:01;20.90;58.20
31677;DHT22;18385;51.572;6.578;2024-02-15T15:28:27;20.80;58.40
31677;DHT22;18385;51.572;6.578;2024-02-15T15:30:53;20.70;58.50
31677;DHT22;18385;51.572;6.578;2024-02-15T15:33:20;20.60;58.70
31677;DHT22;18385;51.572;6.578;2024-02-15T15:35:46;20.50;58.60
31677;DHT22;18385;51.572;6.578;2024-02-15T15:38:12;20.40;58.60
31677;DHT22;18385;51.572;6.578;2024-02-15T15:40:38;20.40;58.60
31677;DHT22;18385;51.572;6.578;2024-02-15T15:43:07;20.40;59.30
31677;DHT22;18385;51.572;6.578;2024-02-15T15:45:36;20.40;58.60
31677;DHT22;18385;51.572;6.578;2024-02-15T15:48:02;20.30;58.50
31677;DHT22;18385;51.572;6.578;2024-02-15T15:50:29;20.30;58.50
31677;DHT22;18385;51.572;6.578;2024-02-15T15:53:02;20.20;58.50